This is the latest recevied weather packets stored in our database for station/object KJ6BBX. If no packets are shown the sender has not sent any weather packets the latest 10 day(s).
| Time | Temp. | Humidity | Pressure | Rain* | Wind** | Luminosity | Snow |
|---|---|---|---|---|---|---|---|
| 1777690215 | 17.22° C | 81% | 1004.3 hPa | 0 mm | - | 0 W/m² | - |
| 1777689315 | 17.78° C | 79% | 1004.4 hPa | 0 mm | - | 1 W/m² | - |
| 1777688414 | 18.33° C | 76% | 1004.1 hPa | 0 mm | - | 8 W/m² | - |
| 1777687514 | 18.89° C | 75% | 1004.1 hPa | 0 mm | - | 16 W/m² | - |
| 1777686614 | 20° C | 73% | 1003.9 hPa | 0 mm | - | 27 W/m² | - |
| 1777685715 | 20° C | 72% | 1003.7 hPa | 0 mm | - | 32 W/m² | - |
| 1777684814 | 20.56° C | 70% | 1003.8 hPa | 0 mm | - | 35 W/m² | - |
| 1777683914 | 20.56° C | 70% | 1003.7 hPa | 0 mm | - | 40 W/m² | - |
| 1777683015 | 21.11° C | 68% | 1003.8 hPa | 0 mm | - | 101 W/m² | - |
| 1777682114 | 21.67° C | 67% | 1003.6 hPa | 0 mm | - | 141 W/m² | - |
| 1777681214 | 22.22° C | 66% | 1003.8 hPa | 0 mm | - | 163 W/m² | - |
| 1777680314 | 22.78° C | 64% | 1003.9 hPa | 0 mm | - | 213 W/m² | - |
| 1777679415 | 23.89° C | 61% | 1003.8 hPa | 0 mm | - | 258 W/m² | - |
| 1777678514 | 23.89° C | 61% | 1003.6 hPa | 0 mm | - | 298 W/m² | - |
| 1777677614 | 24.44° C | 59% | 1003.6 hPa | 0 mm | - | 337 W/m² | - |
| 1777676714 | 25.56° C | 56% | 1003.9 hPa | 0 mm | - | 361 W/m² | - |
| 1777675814 | 25.56° C | 56% | 1003.9 hPa | 0 mm | - | 319 W/m² | - |
| 1777674915 | 26.11° C | 55% | 1004 hPa | 0 mm | - | 426 W/m² | - |
| 1777674015 | 26.67° C | 55% | 1004.1 hPa | 0 mm | - | 468 W/m² | - |
| 1777673115 | 26.67° C | 54% | 1004.6 hPa | 0 mm | - | 453 W/m² | - |
| 1777672214 | 26.67° C | 54% | 1004.7 hPa | 0 mm | - | 466 W/m² | - |
| 1777671314 | 27.22° C | 52% | 1005 hPa | 0 mm | - | 578 W/m² | - |
| 1777670415 | 26.67° C | 54% | 1004.8 hPa | 0 mm | - | 520 W/m² | - |
| 1777669514 | 26.67° C | 53% | 1004.9 hPa | 0 mm | - | 572 W/m² | - |
| 1777668614 | 25.56° C | 56% | 1005.4 hPa | 0 mm | - | 583 W/m² | - |
* Rain since midnight (hover to see other rain measurements)
** Current wind speed in m/s (hover to see current wind gust speed)